Terminal Aerodrome Forecast
Issued by NWS Mt. Holly, NJ

Home | Current Version | Previous Version | Text Only | Print | Product List | Glossary On
Versions: 1 2 3 4 5 6 7 8 9 10 11 12 13 14 15
000
FTUS41 KPHI 261120
TAFACY
TAF
KACY 261120Z 2612/2712 21008KT P6SM SKC
     FM261500 22011G18KT P6SM SCT200
     FM262000 18013G20KT P6SM FEW050
     FM270000 19009KT P6SM SCT150
     FM270900 17006KT P6SM SCT020=

USA.gov is the U.S. government's official web portal to all federal, state and local government web resources and services.